Time;durP1;ratioP1;P1;durP2;ratioP2;P2;SDS_P1;SDS_P2;PMS_P1;PMS_P2;Temp;Humidity;BMP_temperature;BMP_pressure;BME280_temperature;BME280_humidity;BME280_pressure;Samples;Min_cycle;Max_cycle;Signal;HPM_P1;HPM_P2
2021/10/03 00:00:20;;;;;;;10.63;4.25;;;9.20;99.90;;;;;;4864465;29;20483;-91
2021/10/03 00:02:50;;;;;;;7.35;4.07;;;9.10;99.90;;;;;;4865006;29;20396;-90
2021/10/03 00:05:17;;;;;;;6.93;4.20;;;9.00;99.90;;;;;;4865457;29;20506;-90
2021/10/03 00:07:48;;;;;;;3.30;2.20;;;9.00;99.90;;;;;;4865003;29;20100;-89
2021/10/03 00:10:14;;;;;;;3.38;1.90;;;9.00;99.90;;;;;;4864086;29;20045;-89
2021/10/03 00:12:40;;;;;;;3.00;1.33;;;9.00;99.90;;;;;;4863536;29;20036;-89
2021/10/03 00:15:08;;;;;;;3.55;1.90;;;8.90;99.90;;;;;;4864214;29;20037;-89
2021/10/03 00:17:34;;;;;;;3.17;1.17;;;8.90;99.90;;;;;;4874390;29;20391;-90
2021/10/03 00:20:00;;;;;;;2.67;1.10;;;8.80;99.90;;;;;;4874892;29;20058;-90
2021/10/03 00:22:26;;;;;;;2.13;1.23;;;8.80;99.90;;;;;;4872595;29;20048;-90
2021/10/03 00:24:52;;;;;;;3.15;1.23;;;8.80;99.90;;;;;;4870238;29;20044;-90
2021/10/03 00:27:18;;;;;;;5.95;1.90;;;8.70;99.90;;;;;;4870499;29;20040;-90
2021/10/03 00:29:44;;;;;;;4.30;1.77;;;8.70;99.90;;;;;;4865415;29;20061;-89
2021/10/03 00:32:11;;;;;;;3.50;1.45;;;8.70;99.90;;;;;;4870573;29;20037;-89
2021/10/03 00:34:38;;;;;;;2.75;1.63;;;8.60;99.90;;;;;;4878751;29;20033;-90
2021/10/03 00:37:04;;;;;;;4.10;1.75;;;8.60;99.90;;;;;;4864500;29;20029;-90
2021/10/03 00:39:30;;;;;;;2.97;1.30;;;8.50;99.90;;;;;;4864232;29;20060;-90
2021/10/03 00:41:55;;;;;;;2.15;1.27;;;8.50;99.90;;;;;;4864265;29;20502;-89
2021/10/03 00:44:21;;;;;;;3.75;1.77;;;8.50;99.90;;;;;;4864308;29;20631;-90
2021/10/03 00:46:47;;;;;;;3.28;1.40;;;8.50;99.90;;;;;;4867285;29;20036;-89
2021/10/03 00:49:13;;;;;;;3.78;1.40;;;8.40;99.90;;;;;;4884404;29;20040;-90
2021/10/03 00:51:38;;;;;;;4.93;1.20;;;8.40;99.90;;;;;;4879412;29;20037;-90
2021/10/03 00:54:05;;;;;;;2.95;1.15;;;8.40;99.90;;;;;;4869820;29;20029;-88
2021/10/03 00:56:30;;;;;;;3.33;1.45;;;8.30;99.90;;;;;;4888780;29;20084;-90
2021/10/03 00:58:56;;;;;;;5.07;1.50;;;8.30;99.90;;;;;;4874045;29;20440;-89
2021/10/03 01:01:22;;;;;;;2.72;1.15;;;8.30;99.90;;;;;;4887286;29;20052;-90
2021/10/03 01:03:49;;;;;;;3.50;1.33;;;8.20;99.90;;;;;;4864998;29;20033;-90
2021/10/03 01:06:15;;;;;;;4.90;1.40;;;8.20;99.90;;;;;;4888303;29;20021;-89
2021/10/03 01:08:40;;;;;;;2.65;1.00;;;8.20;99.90;;;;;;4883193;29;20136;-89
2021/10/03 01:11:06;;;;;;;4.75;1.10;;;8.10;99.90;;;;;;4876470;29;20088;-90
2021/10/03 01:13:32;;;;;;;5.82;1.10;;;8.10;99.90;;;;;;4886123;29;20526;-90
2021/10/03 01:15:59;;;;;;;7.47;1.20;;;8.10;99.90;;;;;;4872764;29;20061;-92
2021/10/03 01:18:25;;;;;;;3.35;0.85;;;8.00;99.90;;;;;;4887399;29;20023;-90
2021/10/03 01:20:52;;;;;;;6.95;1.20;;;8.00;99.90;;;;;;4876396;29;20032;-90
2021/10/03 01:23:18;;;;;;;2.05;0.90;;;8.00;99.90;;;;;;4887384;29;20715;-91
2021/10/03 01:25:48;;;;;;;4.07;0.98;;;8.00;99.90;;;;;;4874672;29;20036;-90
2021/10/03 01:28:16;;;;;;;6.33;0.87;;;8.00;99.90;;;;;;4888220;29;20048;-90
2021/10/03 01:30:45;;;;;;;5.35;1.00;;;8.00;99.90;;;;;;4872823;29;20357;-90
2021/10/03 01:33:12;;;;;;;3.45;0.90;;;8.00;99.90;;;;;;4918545;29;20069;-91
2021/10/03 01:35:38;;;;;;;3.28;1.15;;;8.00;99.90;;;;;;4890488;29;20123;-90
2021/10/03 01:38:05;;;;;;;6.55;0.90;;;7.90;99.90;;;;;;4876139;29;20029;-91
2021/10/03 01:40:31;;;;;;;4.43;0.80;;;8.00;99.90;;;;;;4913422;29;20032;-90
2021/10/03 01:42:58;;;;;;;1.13;0.50;;;7.90;99.90;;;;;;4880968;29;20067;-90
2021/10/03 01:45:24;;;;;;;3.90;0.82;;;7.90;99.90;;;;;;4887669;29;20088;-90
2021/10/03 01:48:16;;;;;;;6.78;1.00;;;7.90;99.90;;;;;;4866059;29;20021;-90
2021/10/03 01:50:48;;;;;;;5.13;0.70;;;7.90;99.90;;;;;;4870949;29;20140;-90
2021/10/03 01:53:19;;;;;;;3.30;1.02;;;7.90;99.90;;;;;;4920193;29;20043;-90
2021/10/03 01:55:46;;;;;;;7.32;0.80;;;7.80;99.90;;;;;;4886879;29;20129;-90
2021/10/03 01:58:13;;;;;;;1.33;0.73;;;7.80;99.90;;;;;;4888226;29;20027;-91
2021/10/03 02:00:41;;;;;;;3.53;0.80;;;7.80;99.90;;;;;;4886151;29;20064;-90
2021/10/03 02:03:07;;;;;;;2.33;0.80;;;7.70;99.90;;;;;;4876117;29;20032;-90
2021/10/03 02:05:45;;;;;;;4.40;0.80;;;7.70;99.90;;;;;;4885996;29;20032;-91
2021/10/03 02:08:13;;;;;;;2.25;0.80;;;7.70;99.90;;;;;;4867627;29;20021;-90
2021/10/03 02:10:40;;;;;;;2.17;0.52;;;7.70;99.90;;;;;;4887519;29;20048;-90
2021/10/03 02:13:08;;;;;;;7.53;0.90;;;7.70;99.90;;;;;;4876484;29;20063;-90
2021/10/03 02:15:34;;;;;;;5.00;1.02;;;7.70;99.90;;;;;;4888024;29;20599;-90
2021/10/03 02:18:08;;;;;;;3.92;0.95;;;7.60;99.90;;;;;;4878077;29;20341;-90
2021/10/03 02:20:34;;;;;;;3.03;0.70;;;7.60;99.90;;;;;;4890708;29;20057;-90
2021/10/03 02:23:01;;;;;;;5.68;0.88;;;7.60;99.90;;;;;;4883364;29;20069;-90
2021/10/03 02:25:27;;;;;;;4.07;0.57;;;7.60;99.90;;;;;;4919501;29;20475;-90
2021/10/03 02:27:52;;;;;;;2.95;0.70;;;7.50;99.90;;;;;;4892531;29;20020;-91
2021/10/03 02:30:18;;;;;;;5.47;0.60;;;7.50;99.90;;;;;;4888875;29;20068;-90
2021/10/03 02:32:44;;;;;;;1.75;0.93;;;7.50;99.90;;;;;;4893206;29;20027;-90
2021/10/03 02:35:11;;;;;;;7.20;0.80;;;7.50;99.90;;;;;;4893286;29;20025;-92
2021/10/03 02:37:39;;;;;;;2.90;0.75;;;7.50;99.90;;;;;;4923902;29;20024;-90
2021/10/03 02:40:08;;;;;;;4.55;0.90;;;7.50;99.90;;;;;;4930509;29;20475;-90
2021/10/03 02:42:34;;;;;;;3.10;0.70;;;7.50;99.90;;;;;;4891896;29;20051;-90
2021/10/03 02:44:59;;;;;;;1.80;0.50;;;7.50;99.90;;;;;;4891482;29;20035;-90
2021/10/03 02:47:25;;;;;;;2.60;0.63;;;7.50;99.90;;;;;;4895610;29;20040;-90
2021/10/03 02:49:51;;;;;;;9.40;1.48;;;7.50;99.90;;;;;;4926210;29;20028;-89
2021/10/03 02:52:17;;;;;;;7.22;0.82;;;7.50;99.90;;;;;;4897780;29;20035;-89
2021/10/03 02:54:43;;;;;;;3.38;0.60;;;7.50;99.90;;;;;;4899356;29;20020;-89
2021/10/03 02:57:10;;;;;;;11.68;0.75;;;7.50;99.90;;;;;;4893863;29;20375;-88
2021/10/03 02:59:36;;;;;;;4.75;0.75;;;7.50;99.90;;;;;;4895065;29;20032;-89
2021/10/03 03:02:02;;;;;;;2.88;0.73;;;7.50;99.90;;;;;;4894939;29;20124;-89
2021/10/03 03:04:28;;;;;;;3.15;0.70;;;7.50;99.90;;;;;;4892962;29;20032;-90
2021/10/03 03:06:53;;;;;;;3.35;0.77;;;7.50;99.90;;;;;;4893334;29;20021;-90
2021/10/03 03:09:19;;;;;;;3.80;0.80;;;7.40;99.90;;;;;;4894603;29;20466;-89
2021/10/03 03:11:45;;;;;;;4.28;0.52;;;7.40;99.90;;;;;;4894560;29;20071;-89
2021/10/03 03:14:11;;;;;;;1.92;0.50;;;7.40;99.90;;;;;;4926245;29;20028;-89
2021/10/03 03:16:45;;;;;;;9.13;0.90;;;7.40;99.90;;;;;;4892852;29;20052;-89
2021/10/03 03:19:11;;;;;;;7.30;0.70;;;7.50;99.90;;;;;;4892053;29;20032;-88
2021/10/03 03:21:37;;;;;;;8.85;1.20;;;7.40;99.90;;;;;;4894745;29;20056;-89
2021/10/03 03:24:05;;;;;;;5.75;0.80;;;7.40;99.90;;;;;;4892140;29;20063;-90
2021/10/03 03:26:31;;;;;;;2.95;1.00;;;7.40;99.90;;;;;;4910642;29;20035;-90
2021/10/03 03:28:57;;;;;;;5.88;0.77;;;7.40;99.90;;;;;;4894443;29;20024;-90
2021/10/03 03:31:23;;;;;;;5.60;0.65;;;7.40;99.90;;;;;;4893130;29;20597;-91
2021/10/03 03:33:48;;;;;;;2.55;0.60;;;7.40;99.90;;;;;;4896984;29;20017;-89
2021/10/03 03:36:14;;;;;;;3.88;1.00;;;7.40;99.90;;;;;;4891740;29;20052;-90
2021/10/03 03:38:40;;;;;;;6.13;1.73;;;7.40;99.90;;;;;;4893538;29;20059;-89
2021/10/03 03:41:06;;;;;;;3.60;0.60;;;7.40;99.90;;;;;;4891967;29;20036;-88
2021/10/03 03:43:33;;;;;;;4.10;0.85;;;7.30;99.90;;;;;;4893444;29;20024;-89
2021/10/03 03:45:58;;;;;;;2.63;0.77;;;7.30;99.90;;;;;;4892847;29;20029;-89
2021/10/03 03:48:24;;;;;;;0.45;0.40;;;7.30;99.90;;;;;;4890052;29;20088;-90
2021/10/03 03:50:50;;;;;;;5.13;0.85;;;7.30;99.90;;;;;;4893768;29;20406;-90
2021/10/03 03:53:15;;;;;;;5.40;1.23;;;7.30;99.90;;;;;;4892432;29;20036;-91
2021/10/03 03:55:41;;;;;;;2.30;0.57;;;7.30;99.90;;;;;;4899320;29;20032;-90
2021/10/03 03:58:07;;;;;;;4.70;0.90;;;7.30;99.90;;;;;;4902235;29;20032;-91
2021/10/03 04:00:32;;;;;;;6.40;0.85;;;7.20;99.90;;;;;;4892770;29;20392;-91
2021/10/03 04:02:58;;;;;;;4.07;0.98;;;7.20;99.90;;;;;;4892744;29;20060;-90
2021/10/03 04:05:24;;;;;;;6.13;1.25;;;7.20;99.90;;;;;;4891435;29;20060;-90
2021/10/03 04:07:50;;;;;;;4.97;1.13;;;7.20;99.90;;;;;;4890610;29;20028;-90
2021/10/03 04:10:15;;;;;;;2.75;0.77;;;7.10;99.90;;;;;;4892815;29;20038;-90
2021/10/03 04:12:41;;;;;;;4.72;0.80;;;7.10;99.90;;;;;;4890683;29;20115;-91
2021/10/03 04:15:08;;;;;;;4.57;0.80;;;7.10;99.90;;;;;;4892764;29;20231;-91
2021/10/03 04:17:34;;;;;;;4.72;0.75;;;7.10;99.90;;;;;;4892806;29;20024;-91
2021/10/03 04:20:01;;;;;;;7.45;0.93;;;7.10;99.90;;;;;;4893569;29;20154;-91
2021/10/03 04:22:27;;;;;;;5.13;0.80;;;7.10;99.90;;;;;;4893023;29;20154;-90
2021/10/03 04:24:52;;;;;;;2.58;1.00;;;7.10;99.90;;;;;;4890469;29;20480;-91
2021/10/03 04:27:18;;;;;;;2.42;0.73;;;7.00;99.90;;;;;;4892825;29;20073;-91
2021/10/03 04:29:44;;;;;;;3.00;0.90;;;7.00;99.90;;;;;;4899966;29;20051;-90
2021/10/03 04:32:09;;;;;;;5.05;1.20;;;7.00;99.90;;;;;;4902969;29;20028;-89
2021/10/03 04:34:35;;;;;;;6.25;1.73;;;7.00;99.90;;;;;;4902927;29;20054;-89
2021/10/03 04:37:01;;;;;;;10.77;1.40;;;7.00;99.90;;;;;;4897568;29;20028;-89
2021/10/03 04:39:28;;;;;;;9.40;0.90;;;7.00;99.90;;;;;;4899286;29;20055;-89
2021/10/03 04:41:54;;;;;;;4.57;0.80;;;6.90;99.90;;;;;;4895349;29;20024;-89
2021/10/03 04:44:20;;;;;;;5.78;1.05;;;6.90;99.90;;;;;;4891608;29;20025;-89
2021/10/03 04:46:45;;;;;;;3.40;0.90;;;6.90;99.90;;;;;;4893819;29;20159;-89
2021/10/03 04:49:11;;;;;;;6.45;0.98;;;6.90;99.90;;;;;;4892951;29;20489;-90
2021/10/03 04:51:37;;;;;;;2.60;0.90;;;6.80;99.90;;;;;;4892813;29;20189;-89
2021/10/03 04:54:02;;;;;;;5.50;1.10;;;6.80;99.90;;;;;;4894021;29;20027;-89
2021/10/03 04:56:28;;;;;;;2.88;1.20;;;6.70;99.90;;;;;;4901068;29;20032;-90
2021/10/03 04:58:55;;;;;;;3.03;0.70;;;6.70;99.90;;;;;;4897120;29;20107;-90
2021/10/03 05:01:20;;;;;;;2.80;1.02;;;6.70;99.90;;;;;;4900979;29;20024;-90
2021/10/03 05:03:46;;;;;;;3.55;0.88;;;6.70;99.90;;;;;;4901024;29;20457;-89
2021/10/03 05:06:13;;;;;;;1.77;0.90;;;6.70;99.90;;;;;;4893957;29;20016;-91
2021/10/03 05:08:38;;;;;;;4.03;1.30;;;6.70;99.90;;;;;;4900867;29;20056;-90
2021/10/03 05:11:05;;;;;;;5.57;0.95;;;6.80;99.90;;;;;;4900923;29;20457;-90
2021/10/03 05:13:31;;;;;;;2.63;0.70;;;6.70;99.90;;;;;;4901347;29;20067;-90
2021/10/03 05:15:57;;;;;;;4.80;0.90;;;6.70;99.90;;;;;;4900319;29;20036;-90
2021/10/03 05:18:24;;;;;;;4.05;0.90;;;6.70;99.90;;;;;;4900791;29;20382;-89
2021/10/03 05:20:50;;;;;;;7.68;0.95;;;6.70;99.90;;;;;;4900267;29;20479;-91
2021/10/03 05:23:15;;;;;;;3.20;0.60;;;6.70;99.90;;;;;;4900215;29;20083;-91
2021/10/03 05:25:41;;;;;;;2.67;0.77;;;6.70;99.90;;;;;;4900607;29;20509;-90
2021/10/03 05:28:07;;;;;;;6.65;1.08;;;6.60;99.90;;;;;;4900443;29;20043;-90
2021/10/03 05:30:33;;;;;;;2.72;0.90;;;6.60;99.90;;;;;;4900272;29;20048;-90
2021/10/03 05:32:59;;;;;;;6.60;1.17;;;6.60;99.90;;;;;;4900244;29;20060;-90
2021/10/03 05:35:24;;;;;;;3.50;0.90;;;6.60;99.90;;;;;;4900644;29;20032;-90
2021/10/03 05:37:50;;;;;;;1.95;0.77;;;6.60;99.90;;;;;;4895568;29;20043;-90
2021/10/03 05:40:17;;;;;;;5.50;1.00;;;6.60;99.90;;;;;;4881762;29;20084;-90
2021/10/03 05:42:42;;;;;;;5.65;1.20;;;6.60;99.90;;;;;;4881748;29;20025;-90
2021/10/03 05:45:09;;;;;;;8.95;1.27;;;6.60;99.90;;;;;;4881882;29;20105;-91
2021/10/03 05:47:35;;;;;;;6.72;0.80;;;6.50;99.90;;;;;;4882072;29;20056;-90
2021/10/03 05:50:00;;;;;;;3.05;0.98;;;6.50;99.90;;;;;;4885310;29;20553;-90
2021/10/03 05:52:26;;;;;;;7.13;1.20;;;6.50;99.90;;;;;;4886414;29;20080;-90
2021/10/03 05:54:52;;;;;;;2.30;0.82;;;6.50;99.90;;;;;;4885316;29;20036;-90
2021/10/03 05:57:18;;;;;;;7.88;1.35;;;6.50;99.90;;;;;;4889251;29;20162;-90
2021/10/03 05:59:45;;;;;;;4.60;0.70;;;6.60;99.90;;;;;;4898263;29;20474;-89
2021/10/03 06:02:10;;;;;;;2.53;0.68;;;6.60;99.90;;;;;;4900682;29;20474;-90
2021/10/03 06:04:36;;;;;;;7.65;0.80;;;6.50;99.90;;;;;;4901128;29;20040;-90
2021/10/03 06:07:03;;;;;;;5.35;1.42;;;6.60;99.90;;;;;;4904966;29;20036;-89
2021/10/03 06:09:29;;;;;;;5.10;0.77;;;6.60;99.90;;;;;;4912709;29;20021;-91
2021/10/03 06:11:54;;;;;;;3.33;0.82;;;6.60;99.90;;;;;;4910498;29;20036;-89
2021/10/03 06:14:20;;;;;;;3.28;0.90;;;6.60;99.90;;;;;;4908437;29;20028;-89
2021/10/03 06:16:48;;;;;;;3.35;0.80;;;6.70;99.90;;;;;;4900476;29;20036;-90
2021/10/03 06:19:14;;;;;;;7.85;2.05;;;6.70;99.90;;;;;;4901629;29;20028;-90
2021/10/03 06:21:39;;;;;;;10.02;0.90;;;6.70;99.90;;;;;;4903391;29;20036;-90
2021/10/03 06:24:09;;;;;;;6.22;0.60;;;6.70;99.90;;;;;;4902850;29;20048;-90
2021/10/03 06:26:35;;;;;;;7.97;0.77;;;6.80;99.90;;;;;;4903689;29;20024;-89
2021/10/03 06:31:50;;;;;;;6.47;1.27;;;6.80;99.90;;;;;;5215232;23;20470;-89
2021/10/03 06:34:16;;;;;;;5.20;0.70;;;6.80;99.90;;;;;;4941109;29;20020;-91
2021/10/03 06:36:42;;;;;;;5.45;0.80;;;6.80;99.90;;;;;;4941189;29;20565;-89
2021/10/03 06:39:07;;;;;;;8.00;1.08;;;6.80;99.90;;;;;;4941472;29;20019;-90
2021/10/03 06:41:33;;;;;;;6.05;0.90;;;6.90;99.90;;;;;;4958880;28;20019;-89
2021/10/03 06:43:59;;;;;;;3.60;0.70;;;6.90;99.90;;;;;;4938559;29;20020;-88
2021/10/03 06:46:25;;;;;;;9.95;1.00;;;6.90;99.90;;;;;;4940826;29;20076;-90
2021/10/03 06:48:50;;;;;;;3.08;0.63;;;6.90;99.90;;;;;;4933364;29;20106;-90
2021/10/03 06:51:16;;;;;;;7.70;1.10;;;6.90;99.90;;;;;;4928852;29;20106;-90
2021/10/03 06:53:42;;;;;;;3.30;0.90;;;7.00;99.90;;;;;;4958011;28;20025;-90
2021/10/03 06:56:10;;;;;;;5.07;0.77;;;6.90;99.90;;;;;;4941350;29;20031;-91
2021/10/03 06:58:36;;;;;;;3.30;0.80;;;6.90;99.90;;;;;;4958352;29;20038;-90
2021/10/03 07:01:04;;;;;;;6.68;1.00;;;6.90;99.90;;;;;;4945715;28;20035;-91
2021/10/03 07:03:30;;;;;;;5.72;0.82;;;6.90;99.90;;;;;;4940076;29;20027;-90
2021/10/03 07:05:56;;;;;;;3.63;0.60;;;7.00;99.90;;;;;;4936703;29;20059;-91
2021/10/03 07:08:21;;;;;;;6.03;0.70;;;7.00;99.90;;;;;;4941345;29;20058;-89
2021/10/03 07:10:47;;;;;;;4.40;0.60;;;7.00;99.90;;;;;;4942003;29;20429;-91
2021/10/03 07:13:13;;;;;;;4.38;0.82;;;7.00;99.90;;;;;;4942659;29;20019;-90
2021/10/03 07:15:39;;;;;;;8.50;1.10;;;7.10;99.90;;;;;;4941407;29;20035;-89
2021/10/03 07:18:05;;;;;;;6.65;0.73;;;7.10;99.90;;;;;;4928605;29;20128;-90
2021/10/03 07:20:31;;;;;;;3.20;0.50;;;7.10;99.90;;;;;;4940554;29;20028;-89
2021/10/03 07:22:56;;;;;;;6.47;0.80;;;7.20;99.90;;;;;;4939049;29;20032;-89
2021/10/03 07:25:25;;;;;;;6.35;0.70;;;7.20;99.90;;;;;;4929839;29;20035;-90
2021/10/03 07:27:50;;;;;;;3.35;1.00;;;7.20;99.90;;;;;;4939657;29;20027;-88
2021/10/03 07:30:16;;;;;;;5.15;0.60;;;7.30;99.90;;;;;;4939451;29;20036;-90
2021/10/03 07:32:42;;;;;;;6.18;0.90;;;7.40;99.90;;;;;;4940091;29;20134;-90
2021/10/03 07:35:09;;;;;;;6.60;0.80;;;7.40;99.90;;;;;;4956603;29;20057;-90
2021/10/03 07:37:35;;;;;;;9.93;1.00;;;7.40;99.90;;;;;;4930416;29;20055;-91
2021/10/03 07:40:04;;;;;;;5.15;0.68;;;7.40;99.90;;;;;;4954154;29;20051;-90
2021/10/03 07:42:30;;;;;;;7.82;0.60;;;7.50;99.90;;;;;;4938217;29;20069;-90
2021/10/03 07:44:56;;;;;;;5.97;1.05;;;7.60;99.90;;;;;;4937071;29;20026;-88
2021/10/03 07:47:22;;;;;;;4.57;0.73;;;7.70;99.90;;;;;;4931545;29;20035;-91
2021/10/03 07:49:47;;;;;;;10.32;1.48;;;7.70;99.90;;;;;;4935818;29;20047;-89
2021/10/03 07:52:13;;;;;;;4.55;1.02;;;7.80;99.90;;;;;;4934828;29;20027;-90
2021/10/03 07:54:39;;;;;;;3.75;1.10;;;7.80;99.90;;;;;;4926027;29;20125;-89
2021/10/03 07:57:05;;;;;;;7.32;1.02;;;7.90;99.90;;;;;;4935741;29;20031;-89
2021/10/03 07:59:31;;;;;;;3.33;0.80;;;8.00;99.90;;;;;;4935948;29;20031;-88
2021/10/03 08:01:57;;;;;;;2.97;1.38;;;8.10;99.90;;;;;;4938282;29;20016;-90
2021/10/03 08:04:23;;;;;;;6.18;1.00;;;8.20;99.90;;;;;;4937487;29;20027;-91
2021/10/03 08:06:48;;;;;;;8.50;0.85;;;8.30;99.90;;;;;;4933627;29;20023;-89
2021/10/03 08:09:14;;;;;;;6.57;1.27;;;8.30;99.90;;;;;;4938364;29;20063;-91
2021/10/03 08:11:40;;;;;;;7.57;1.27;;;8.40;99.90;;;;;;4931394;28;20043;-91
2021/10/03 08:14:06;;;;;;;6.63;0.98;;;8.50;99.90;;;;;;4935194;29;20023;-91
2021/10/03 08:16:32;;;;;;;4.38;1.25;;;8.60;99.90;;;;;;4936395;29;20031;-93
2021/10/03 08:18:58;;;;;;;7.53;0.73;;;8.70;99.90;;;;;;4936131;29;20146;-91
2021/10/03 08:21:26;;;;;;;5.43;1.02;;;8.80;99.90;;;;;;4933758;29;20147;-90
2021/10/03 08:23:52;;;;;;;4.45;0.90;;;8.80;99.90;;;;;;4930745;29;20102;-89
2021/10/03 08:26:18;;;;;;;2.05;0.65;;;8.90;99.90;;;;;;4929565;29;20067;-89
2021/10/03 08:28:44;;;;;;;6.07;1.23;;;9.00;99.90;;;;;;4928505;29;20089;-88
2021/10/03 08:31:10;;;;;;;4.00;1.67;;;9.10;99.90;;;;;;4931373;29;20094;-87
2021/10/03 08:33:36;;;;;;;7.47;1.00;;;9.10;99.90;;;;;;4945077;29;20042;-89
2021/10/03 08:36:02;;;;;;;6.43;2.55;;;9.20;99.90;;;;;;4941744;29;20051;-89
2021/10/03 08:38:28;;;;;;;6.30;1.20;;;9.30;99.90;;;;;;4936914;29;20059;-88
2021/10/03 08:40:55;;;;;;;8.48;1.38;;;9.30;99.90;;;;;;4935932;29;20035;-87
2021/10/03 08:43:20;;;;;;;6.57;1.13;;;9.40;99.90;;;;;;4942414;29;20023;-88
2021/10/03 08:45:46;;;;;;;5.75;0.95;;;9.50;99.90;;;;;;4940290;29;20038;-88
2021/10/03 08:48:15;;;;;;;7.20;1.35;;;9.60;99.90;;;;;;4947155;28;20366;-88
2021/10/03 08:50:42;;;;;;;4.68;0.98;;;9.70;99.90;;;;;;4937745;29;20043;-88
2021/10/03 08:53:09;;;;;;;12.80;1.58;;;9.70;99.90;;;;;;4937419;29;20023;-86
2021/10/03 08:55:35;;;;;;;11.40;2.05;;;9.80;99.90;;;;;;4936442;29;20074;-87
2021/10/03 08:58:02;;;;;;;6.03;1.02;;;9.90;99.90;;;;;;4936343;29;20035;-88
2021/10/03 09:00:28;;;;;;;4.35;0.68;;;9.90;99.90;;;;;;4923700;29;20195;-89
2021/10/03 09:03:04;;;;;;;3.42;0.70;;;10.00;99.90;;;;;;4952539;29;20039;-88
2021/10/03 09:05:52;;;;;;;3.33;0.95;;;10.10;99.90;;;;;;4930649;29;20046;-90
2021/10/03 09:08:19;;;;;;;10.63;2.78;;;10.20;99.90;;;;;;4934280;29;20054;-88
2021/10/03 09:10:52;;;;;;;3.80;1.00;;;10.30;99.90;;;;;;4935639;29;20035;-88
2021/10/03 09:13:19;;;;;;;7.22;1.00;;;10.40;99.90;;;;;;4935460;29;20023;-87
2021/10/03 09:15:46;;;;;;;12.48;3.47;;;10.40;99.90;;;;;;4936207;29;20477;-87
2021/10/03 09:18:15;;;;;;;5.30;0.98;;;10.60;99.90;;;;;;4937099;29;20545;-88
2021/10/03 09:20:42;;;;;;;6.15;0.90;;;10.70;99.90;;;;;;4936536;29;20489;-88
2021/10/03 09:23:11;;;;;;;2.90;1.23;;;10.80;99.90;;;;;;4936850;29;20477;-89
2021/10/03 09:25:39;;;;;;;1.02;0.40;;;11.00;99.90;;;;;;4938052;29;20122;-88
2021/10/03 09:28:12;;;;;;;2.53;1.00;;;11.10;99.90;;;;;;4938012;29;20035;-90
2021/10/03 09:30:54;;;;;;;4.03;0.55;;;11.20;99.90;;;;;;4936994;29;20501;-88
2021/10/03 09:33:20;;;;;;;9.65;0.93;;;11.40;99.90;;;;;;4938119;29;20035;-88
2021/10/03 09:36:00;;;;;;;3.88;0.80;;;11.50;99.90;;;;;;4938107;29;20582;-89
2021/10/03 09:38:29;;;;;;;4.05;1.05;;;11.60;99.90;;;;;;4937461;29;20023;-89
2021/10/03 09:41:14;;;;;;;8.10;1.00;;;11.70;99.90;;;;;;4938161;29;20090;-89
2021/10/03 09:43:49;;;;;;;4.13;0.65;;;11.90;99.90;;;;;;4938124;29;20035;-89
2021/10/03 09:46:38;;;;;;;2.28;0.77;;;12.00;99.90;;;;;;4938201;29;20051;-89
2021/10/03 09:49:15;;;;;;;10.35;0.88;;;12.00;99.90;;;;;;4937558;29;20413;-88
2021/10/03 09:51:47;;;;;;;7.55;1.00;;;12.10;99.90;;;;;;4937675;29;20094;-90
2021/10/03 09:54:15;;;;;;;6.25;1.02;;;12.20;99.90;;;;;;4937574;29;20023;-88
2021/10/03 09:56:41;;;;;;;2.88;0.85;;;12.30;99.90;;;;;;4934729;29;20038;-88
2021/10/03 09:59:08;;;;;;;1.55;0.60;;;12.50;99.90;;;;;;4918801;29;20036;-91
2021/10/03 10:01:44;;;;;;;5.57;1.25;;;12.60;99.90;;;;;;4923808;29;20068;-88
2021/10/03 10:04:11;;;;;;;2.08;0.80;;;12.70;99.90;;;;;;4937545;29;20055;-88
2021/10/03 10:06:37;;;;;;;4.70;0.90;;;12.90;99.90;;;;;;4937735;29;20481;-89
2021/10/03 10:09:09;;;;;;;8.05;1.30;;;13.00;99.90;;;;;;4937911;29;20062;-88
2021/10/03 10:11:38;;;;;;;5.35;1.10;;;13.20;99.90;;;;;;4937474;29;20074;-89
2021/10/03 10:14:06;;;;;;;7.75;1.00;;;13.40;99.90;;;;;;4954723;29;20528;-89
2021/10/03 10:16:42;;;;;;;15.77;6.47;;;13.60;99.90;;;;;;4918957;29;20039;-88
2021/10/03 10:19:43;;;;;;;7.47;1.50;;;13.80;99.90;;;;;;4936024;29;20059;-88
2021/10/03 10:22:11;;;;;;;;;;;13.90;99.90;;;;;;4839792;29;20030;-89
2021/10/03 10:24:43;;;;;;;9.90;2.15;;;14.10;99.90;;;;;;4858651;29;20002;-89
2021/10/03 10:27:29;;;;;;;2.83;1.23;;;14.20;99.90;;;;;;4858807;29;20065;-88
2021/10/03 10:30:03;;;;;;;8.70;1.13;;;14.30;99.90;;;;;;4840443;29;20105;-87
2021/10/03 10:32:34;;;;;;;8.02;0.90;;;14.40;99.80;;;;;;4836515;29;20538;-89
2021/10/03 10:35:09;;;;;;;4.82;0.85;;;14.50;99.40;;;;;;4843498;29;20069;-89
2021/10/03 10:37:51;;;;;;;4.78;0.73;;;14.60;98.90;;;;;;4850678;29;20053;-90
2021/10/03 10:40:23;;;;;;;3.50;0.75;;;14.80;98.20;;;;;;4858282;29;20036;-89
2021/10/03 10:42:53;;;;;;;6.63;0.80;;;14.90;98.50;;;;;;4859424;29;20535;-89
2021/10/03 10:45:27;;;;;;;3.00;0.63;;;15.10;97.80;;;;;;4845701;29;20034;-88
2021/10/03 10:48:11;;;;;;;5.57;1.02;;;15.30;97.50;;;;;;4846265;29;20087;-89
2021/10/03 10:50:42;;;;;;;7.75;1.10;;;15.50;96.50;;;;;;4845843;29;20087;-89
2021/10/03 10:53:21;;;;;;;;;;;15.70;95.80;;;;;;4846101;29;20078;-88
2021/10/03 10:56:16;;;;;;;3.58;0.60;;;15.70;95.00;;;;;;4879390;29;19956;-89
2021/10/03 10:58:51;;;;;;;5.50;0.90;;;15.80;94.60;;;;;;4940491;29;20367;-88
2021/10/03 11:01:18;;;;;;;7.75;0.80;;;15.80;94.50;;;;;;4940619;29;20109;-88
2021/10/03 11:03:44;;;;;;;5.32;0.90;;;15.80;94.50;;;;;;4940138;29;20038;-88
2021/10/03 11:06:10;;;;;;;5.53;1.38;;;15.80;94.60;;;;;;4940079;29;20027;-89
2021/10/03 11:08:56;;;;;;;7.35;1.10;;;15.60;94.40;;;;;;4939758;29;20041;-87
2021/10/03 11:11:28;;;;;;;4.90;0.90;;;15.50;95.00;;;;;;4930253;29;20043;-87
2021/10/03 11:13:59;;;;;;;6.32;1.10;;;15.50;94.80;;;;;;4940361;29;20028;-89
2021/10/03 11:16:25;;;;;;;7.22;0.80;;;15.60;94.10;;;;;;4940797;29;20101;-86
2021/10/03 11:18:56;;;;;;;7.88;1.42;;;15.60;94.30;;;;;;4956974;29;20462;-88
2021/10/03 11:21:28;;;;;;;3.22;0.88;;;15.70;94.10;;;;;;4939849;29;20039;-88
2021/10/03 11:23:56;;;;;;;4.63;0.90;;;15.80;93.80;;;;;;4937904;29;20034;-89
2021/10/03 11:26:23;;;;;;;2.15;0.40;;;15.90;93.70;;;;;;4938502;29;20046;-89
2021/10/03 11:28:57;;;;;;;7.90;0.90;;;16.00;93.50;;;;;;4939036;29;20470;-87
2021/10/03 11:31:45;;;;;;;5.85;1.02;;;16.00;93.10;;;;;;4938616;29;20122;-87
2021/10/03 11:34:27;;;;;;;5.88;0.88;;;16.00;92.60;;;;;;4935871;29;20034;-88
2021/10/03 11:36:53;;;;;;;4.05;0.80;;;16.00;92.50;;;;;;4952248;29;20098;-87
2021/10/03 11:39:37;;;;;;;9.23;1.00;;;16.10;92.80;;;;;;4948163;29;20028;-90
2021/10/03 11:42:06;;;;;;;3.72;0.90;;;16.10;93.00;;;;;;4939049;29;20024;-89
2021/10/03 11:44:33;;;;;;;2.47;0.73;;;16.30;92.90;;;;;;4941257;29;20054;-87
2021/10/03 11:47:01;;;;;;;6.43;1.48;;;16.30;93.20;;;;;;4948093;29;20166;-89
2021/10/03 11:49:29;;;;;;;12.73;1.52;;;16.20;93.50;;;;;;4939400;29;20023;-89
2021/10/03 11:51:57;;;;;;;10.88;1.30;;;16.20;93.50;;;;;;4938011;29;20039;-88
2021/10/03 11:54:42;;;;;;;5.00;1.25;;;16.30;93.10;;;;;;4934767;29;20099;-89
2021/10/03 11:57:15;;;;;;;3.40;0.60;;;16.10;93.00;;;;;;4935887;29;20500;-89
2021/10/03 11:59:41;;;;;;;5.53;0.80;;;16.00;92.70;;;;;;4936004;29;20027;-89
2021/10/03 12:02:41;;;;;;;3.95;0.73;;;15.90;93.00;;;;;;4937057;29;20037;-88
2021/10/03 12:05:09;;;;;;;5.43;0.70;;;15.50;93.50;;;;;;4938244;29;20031;-89
2021/10/03 12:07:35;;;;;;;5.35;1.20;;;15.30;94.40;;;;;;4938474;29;20059;-89
2021/10/03 12:10:09;;;;;;;6.43;1.13;;;15.00;95.60;;;;;;4945571;29;20046;-89
2021/10/03 12:12:47;;;;;;;4.75;1.23;;;14.80;96.80;;;;;;4948024;29;20043;-88
2021/10/03 12:15:40;;;;;;;3.67;0.93;;;14.60;97.70;;;;;;4930418;29;20027;-88
2021/10/03 12:18:31;;;;;;;8.68;2.28;;;14.70;98.70;;;;;;4971421;28;20028;-88
2021/10/03 12:21:09;;;;;;;8.38;1.35;;;14.90;98.80;;;;;;4953732;29;20051;-89
2021/10/03 12:24:00;;;;;;;18.58;8.93;;;15.20;99.10;;;;;;4960472;28;20031;-88
2021/10/03 12:26:25;;;;;;;3.75;1.00;;;15.60;98.80;;;;;;4932740;29;20066;-88
2021/10/03 12:29:09;;;;;;;6.20;1.23;;;15.90;97.40;;;;;;4954428;28;20062;-87
2021/10/03 12:31:36;;;;;;;6.57;1.30;;;16.10;96.80;;;;;;4936831;29;20074;-88
2021/10/03 12:34:14;;;;;;;2.45;0.73;;;16.30;96.50;;;;;;4929647;29;20023;-88
2021/10/03 12:36:55;;;;;;;5.10;1.70;;;16.60;95.40;;;;;;4960615;28;20027;-87
2021/10/03 12:39:34;;;;;;;4.00;1.10;;;16.70;94.80;;;;;;4960598;28;20019;-88
2021/10/03 12:42:21;;;;;;;5.85;1.02;;;17.00;94.10;;;;;;4921870;29;20039;-89
2021/10/03 12:44:49;;;;;;;2.85;0.70;;;17.20;93.00;;;;;;4927071;29;20055;-89
2021/10/03 12:47:19;;;;;;;3.47;0.65;;;17.40;92.50;;;;;;4928946;29;20028;-87
2021/10/03 12:49:45;;;;;;;6.82;0.93;;;17.50;91.60;;;;;;4927134;29;20027;-89
2021/10/03 12:52:13;;;;;;;4.00;0.90;;;17.60;90.60;;;;;;4930653;29;20063;-90
2021/10/03 12:54:39;;;;;;;2.70;0.77;;;17.50;89.30;;;;;;4924958;29;20048;-89
2021/10/03 12:57:06;;;;;;;2.15;0.50;;;17.50;90.20;;;;;;4927317;29;20031;-89
2021/10/03 12:59:32;;;;;;;4.53;0.82;;;17.60;90.40;;;;;;4921453;29;20020;-88
2021/10/03 13:01:58;;;;;;;3.20;1.27;;;17.60;90.00;;;;;;4933902;29;20111;-88